Time;durP1;ratioP1;P1;durP2;ratioP2;P2;SDS_P1;SDS_P2;PMS_P1;PMS_P2;Temp;Humidity;BMP_temperature;BMP_pressure;BME280_temperature;BME280_humidity;BME280_pressure;Samples;Min_cycle;Max_cycle;Signal;HPM_P1;HPM_P2
2021/05/09 00:01:28;;;;;;;9.30;5.40;;;;;;;21.64;58.31;101670.69;144994;631;5002;-79
2021/05/09 00:03:55;;;;;;;8.52;5.40;;;;;;;21.74;56.01;101667.16;144994;638;5002;-79
2021/05/09 00:06:22;;;;;;;9.32;6.03;;;;;;;21.78;56.02;101662.75;144994;572;5002;-80
2021/05/09 00:08:49;;;;;;;10.68;5.60;;;;;;;21.88;56.11;101666.25;144994;599;5002;-80
2021/05/09 00:11:16;;;;;;;10.30;6.12;;;;;;;21.84;57.06;101664.50;144994;569;5002;-81
2021/05/09 00:13:44;;;;;;;6.65;4.70;;;;;;;21.92;57.12;101665.34;144994;569;5002;-80
2021/05/09 00:16:12;;;;;;;11.48;5.25;;;;;;;21.92;56.05;101662.72;144993;616;5002;-81
2021/05/09 00:18:39;;;;;;;8.02;5.30;;;;;;;21.96;55.90;101666.25;144994;673;5002;-81
2021/05/09 00:21:06;;;;;;;8.48;4.93;;;;;;;21.89;57.82;101660.97;144994;616;5002;-81
2021/05/09 00:23:33;;;;;;;10.50;5.57;;;;;;;21.68;59.38;101679.50;144994;569;5002;-81
2021/05/09 00:25:59;;;;;;;11.00;5.60;;;;;;;21.70;58.58;101683.03;144994;579;5002;-82
2021/05/09 00:28:26;;;;;;;13.73;5.10;;;;;;;21.59;59.52;101685.69;144994;572;5002;-79
2021/05/09 00:30:53;;;;;;;12.70;5.20;;;;;;;21.58;59.92;101689.19;144994;658;5002;-81
2021/05/09 00:33:20;;;;;;;11.07;5.93;;;;;;;21.72;56.91;101684.78;144994;628;5002;-79
2021/05/09 00:35:47;;;;;;;12.50;5.28;;;;;;;21.64;57.34;101683.91;144994;632;5002;-81
2021/05/09 00:38:14;;;;;;;12.52;6.05;;;;;;;21.69;56.92;101686.53;144994;583;5002;-81
2021/05/09 00:40:44;;;;;;;18.00;5.87;;;;;;;21.55;59.75;101692.72;144994;593;5002;-81
2021/05/09 00:43:11;;;;;;;11.20;5.70;;;;;;;21.53;59.71;101698.88;144994;589;5002;-80
2021/05/09 00:45:39;;;;;;;15.15;6.37;;;;;;;21.59;57.96;101693.59;144994;593;5002;-80
2021/05/09 00:48:09;;;;;;;10.82;5.65;;;;;;;21.52;59.36;101705.03;144994;663;5002;-80
2021/05/09 00:50:36;;;;;;;10.73;5.68;;;;;;;21.51;59.29;101704.16;144994;622;5002;-81
2021/05/09 00:53:07;;;;;;;13.35;5.78;;;;;;;21.61;57.28;101709.47;144994;587;5002;-82
2021/05/09 00:55:35;;;;;;;9.30;5.55;;;;;;;21.60;57.78;101711.19;144994;637;5002;-79
2021/05/09 00:58:02;;;;;;;13.82;5.85;;;;;;;21.55;57.33;101707.69;144994;668;5002;-80
2021/05/09 01:00:30;;;;;;;10.52;5.28;;;;;;;21.62;57.51;101717.38;144994;569;5002;-80
2021/05/09 01:02:59;;;;;;;9.82;5.25;;;;;;;21.57;57.57;101716.50;144994;681;5002;-80
2021/05/09 01:05:26;;;;;;;9.50;5.20;;;;;;;21.72;56.61;101715.59;144994;619;5002;-80
2021/05/09 01:07:54;;;;;;;10.15;4.97;;;;;;;21.84;56.81;101718.25;144994;618;5002;-80
2021/05/09 01:10:21;;;;;;;12.02;5.65;;;;;;;21.72;58.48;101713.84;144994;581;5002;-81
2021/05/09 01:12:50;;;;;;;12.02;5.80;;;;;;;21.74;57.96;101717.34;144994;585;5002;-80
2021/05/09 01:15:18;;;;;;;14.70;5.12;;;;;;;21.80;57.46;101723.53;144994;588;5002;-80
2021/05/09 01:17:46;;;;;;;11.95;5.50;;;;;;;21.91;56.95;101732.34;144994;650;5002;-82
2021/05/09 01:20:35;;;;;;;9.57;4.90;;;;;;;21.96;56.50;101729.69;144994;638;5002;-80
2021/05/09 01:23:03;;;;;;;12.73;5.00;;;;;;;22.05;56.53;101730.53;144994;579;5002;-81
2021/05/09 01:25:30;;;;;;;11.73;4.80;;;;;;;22.04;57.65;101733.19;144994;592;5002;-81
2021/05/09 01:27:57;;;;;;;15.75;5.28;;;;;;;22.00;57.72;101727.03;144994;575;5002;-81
2021/05/09 01:30:24;;;;;;;11.45;5.50;;;;;;;21.97;56.87;101736.72;144994;578;5002;-80
2021/05/09 01:32:52;;;;;;;9.32;4.95;;;;;;;21.71;58.65;101727.97;144994;650;5002;-81
2021/05/09 01:35:19;;;;;;;8.43;4.95;;;;;;;21.82;58.05;101738.50;144994;649;5002;-79
2021/05/09 01:37:48;;;;;;;10.15;4.50;;;;;;;21.70;57.74;101734.09;144994;586;5002;-80
2021/05/09 01:40:15;;;;;;;9.25;5.30;;;;;;;21.69;58.27;101742.91;144994;675;5002;-79
2021/05/09 01:42:42;;;;;;;10.90;5.25;;;;;;;21.61;58.40;101733.22;144994;570;5002;-81
2021/05/09 01:45:10;;;;;;;8.35;4.75;;;;;;;21.76;57.25;101737.63;144994;624;5002;-80
2021/05/09 01:47:37;;;;;;;8.80;4.62;;;;;;;21.81;56.62;101735.84;144994;685;5002;-80
2021/05/09 01:50:13;;;;;;;13.85;4.57;;;;;;;21.65;57.09;101735.88;144994;627;5002;-80
2021/05/09 01:52:40;;;;;;;12.30;4.30;;;;;;;21.60;57.78;101737.63;144994;575;5002;-81
2021/05/09 01:55:10;;;;;;;9.63;4.28;;;;;;;21.56;57.62;101741.16;144994;573;5002;-80
2021/05/09 01:57:37;;;;;;;9.93;4.10;;;;;;;21.66;56.51;101748.19;144994;589;5002;-80
2021/05/09 02:00:09;;;;;;;7.37;4.25;;;;;;;21.73;56.37;101741.16;144993;589;5002;-79
2021/05/09 02:02:36;;;;;;;9.50;4.35;;;;;;;21.78;56.41;101742.03;144994;598;5002;-81
2021/05/09 02:05:04;;;;;;;11.88;4.30;;;;;;;21.77;56.84;101749.97;144994;564;5002;-81
2021/05/09 02:07:32;;;;;;;9.52;4.25;;;;;;;21.71;56.52;101756.13;144994;597;5002;-80
2021/05/09 02:09:58;;;;;;;8.38;4.50;;;;;;;21.65;56.73;101746.44;144994;580;5002;-77
2021/05/09 02:12:25;;;;;;;6.72;4.10;;;;;;;21.72;56.43;101749.97;144994;595;4566;-80
2021/05/09 02:14:54;;;;;;;11.52;4.03;;;;;;;21.79;56.46;101750.84;144994;693;4567;-80
2021/05/09 02:17:21;;;;;;;9.20;3.50;;;;;;;21.76;55.94;101754.34;144994;566;4572;-80
2021/05/09 02:19:48;;;;;;;8.27;3.65;;;;;;;21.85;56.35;101764.94;144992;581;6002;-81
2021/05/09 02:22:16;;;;;;;7.20;3.75;;;;;;;21.86;55.95;101765.81;144991;594;6002;-80
2021/05/09 02:24:45;;;;;;;8.57;3.67;;;;;;;21.83;55.20;101766.69;144992;616;6002;-80
2021/05/09 02:27:15;;;;;;;7.03;3.65;;;;;;;21.89;55.32;101771.12;144992;609;6002;-80
2021/05/09 02:29:42;;;;;;;7.22;3.72;;;;;;;21.96;55.74;101780.78;144992;577;6002;-81
2021/05/09 02:32:11;;;;;;;10.45;3.70;;;;;;;22.07;55.73;101778.12;144992;650;6002;-81
2021/05/09 02:34:40;;;;;;;6.12;3.53;;;;;;;21.91;54.88;101778.12;144992;620;6002;-80
2021/05/09 02:37:07;;;;;;;8.48;4.50;;;;;;;21.90;55.29;101776.41;144992;569;6002;-81
2021/05/09 02:39:36;;;;;;;12.00;3.85;;;;;;;21.97;55.19;101782.56;144992;565;6002;-81
2021/05/09 02:42:06;;;;;;;7.97;3.75;;;;;;;22.04;54.74;101786.06;144992;577;6002;-81
2021/05/09 02:44:34;;;;;;;11.10;3.67;;;;;;;21.96;55.01;101785.19;144992;643;6002;-81
2021/05/09 02:47:01;;;;;;;8.23;4.03;;;;;;;21.91;54.69;101796.66;144992;565;6002;-81
2021/05/09 02:49:28;;;;;;;9.15;3.37;;;;;;;21.76;54.36;101793.13;144992;653;6002;-81
2021/05/09 02:51:55;;;;;;;9.25;3.30;;;;;;;21.81;54.85;101807.22;144992;666;6002;-81
2021/05/09 02:54:26;;;;;;;8.95;3.45;;;;;;;21.81;55.30;101810.75;144992;573;6002;-81
2021/05/09 02:56:53;;;;;;;8.98;3.47;;;;;;;21.90;55.14;101808.12;144992;665;6002;-83
2021/05/09 02:59:23;;;;;;;7.75;3.60;;;;;;;21.90;55.30;101807.22;144992;616;6002;-79
2021/05/09 03:01:52;;;;;;;7.18;3.33;;;;;;;21.78;54.66;101815.12;144992;593;6002;-80
2021/05/09 03:04:20;;;;;;;10.77;3.50;;;;;;;21.86;54.36;101821.34;144992;570;6002;-80
2021/05/09 03:06:48;;;;;;;8.98;3.53;;;;;;;21.81;55.23;101820.41;144992;650;6002;-81
2021/05/09 03:09:16;;;;;;;8.77;3.17;;;;;;;21.78;55.06;101825.69;144992;600;6002;-81
2021/05/09 03:11:44;;;;;;;11.65;3.65;;;;;;;21.82;55.71;101832.78;144992;604;6002;-82
2021/05/09 03:14:11;;;;;;;10.35;3.50;;;;;;;21.82;55.58;101844.22;144992;574;6002;-83
2021/05/09 03:16:38;;;;;;;14.05;3.40;;;;;;;21.85;55.15;101843.34;144992;620;6002;-80
2021/05/09 03:19:12;;;;;;;10.77;3.87;;;;;;;21.84;54.85;101836.28;144992;569;6002;-78
2021/05/09 03:21:42;;;;;;;11.80;3.80;;;;;;;21.63;55.94;101853.87;144992;590;6002;-80
2021/05/09 03:24:13;;;;;;;9.30;3.10;;;;;;;21.60;55.25;101851.22;144992;585;6002;-80
2021/05/09 03:26:43;;;;;;;8.65;3.37;;;;;;;21.62;55.54;101853.87;144992;565;6002;-80
2021/05/09 03:29:10;;;;;;;9.80;3.20;;;;;;;21.53;55.19;101857.37;144992;585;6002;-81
2021/05/09 03:31:37;;;;;;;9.32;3.25;;;;;;;21.67;55.38;101865.34;144992;575;6002;-80
2021/05/09 03:34:05;;;;;;;9.32;3.20;;;;;;;21.73;54.83;101863.59;144992;625;6002;-81
2021/05/09 03:36:35;;;;;;;11.63;4.25;;;;;;;21.68;54.89;101870.63;144992;570;6002;-80
2021/05/09 03:39:01;;;;;;;13.43;4.03;;;;;;;21.69;55.01;101875.03;144992;592;6002;-80
2021/05/09 03:41:36;;;;;;;9.57;3.53;;;;;;;21.60;55.14;101879.41;144992;592;6002;-80
2021/05/09 03:44:05;;;;;;;7.35;3.67;;;;;;;21.65;54.63;101886.50;144992;567;6002;-81
2021/05/09 03:46:32;;;;;;;10.13;3.37;;;;;;;21.61;55.17;101897.03;144992;610;6002;-80
2021/05/09 03:48:59;;;;;;;9.70;2.78;;;;;;;21.66;55.31;101903.22;144992;606;6002;-81
2021/05/09 03:51:25;;;;;;;8.38;3.72;;;;;;;21.62;55.49;101904.97;144992;603;6002;-80
2021/05/09 03:53:55;;;;;;;8.65;3.58;;;;;;;21.62;54.58;101907.63;144992;569;6002;-81
2021/05/09 03:56:21;;;;;;;7.97;3.25;;;;;;;21.63;54.42;101904.06;144992;657;6002;-82
2021/05/09 03:58:48;;;;;;;5.55;3.20;;;;;;;21.62;54.77;101912.00;144992;614;6002;-79
2021/05/09 04:01:15;;;;;;;10.52;3.53;;;;;;;21.65;54.47;101915.56;144992;597;6002;-81
2021/05/09 04:03:43;;;;;;;10.25;3.28;;;;;;;21.68;54.05;101919.94;144992;680;6002;-80
2021/05/09 04:06:10;;;;;;;7.62;3.30;;;;;;;21.60;54.48;101933.12;144992;616;6002;-80
2021/05/09 04:08:36;;;;;;;6.45;3.03;;;;;;;21.64;54.18;101934.91;144992;593;6002;-81
2021/05/09 04:11:03;;;;;;;6.10;2.97;;;;;;;21.62;54.06;101933.12;144992;656;6002;-80
2021/05/09 04:13:29;;;;;;;9.35;3.50;;;;;;;21.59;54.46;101933.12;144992;585;6002;-80
2021/05/09 04:15:55;;;;;;;14.75;3.55;;;;;;;21.54;54.80;101938.41;144992;599;6002;-81
2021/05/09 04:18:22;;;;;;;12.60;3.60;;;;;;;21.50;54.91;101940.12;144992;616;6002;-81
2021/05/09 04:20:48;;;;;;;12.48;3.55;;;;;;;21.43;54.44;101945.34;144992;592;6002;-81
2021/05/09 04:23:17;;;;;;;12.80;3.08;;;;;;;21.45;54.48;101941.84;144992;569;6002;-80
2021/05/09 04:25:49;;;;;;;7.20;2.85;;;;;;;21.34;55.05;101951.50;144992;643;6002;-80
2021/05/09 04:28:16;;;;;;;9.43;3.33;;;;;;;21.30;54.97;101947.06;144992;629;6002;-81
2021/05/09 04:30:42;;;;;;;12.82;3.20;;;;;;;21.31;54.76;101948.84;144992;589;6002;-79
2021/05/09 04:33:09;;;;;;;11.12;3.05;;;;;;;21.32;54.27;101953.25;144992;601;6002;-82
2021/05/09 04:35:40;;;;;;;9.63;3.30;;;;;;;21.29;54.16;101953.25;144992;604;6002;-81
2021/05/09 04:38:08;;;;;;;7.12;2.92;;;;;;;21.33;54.39;101963.84;144992;634;6002;-80
2021/05/09 04:40:35;;;;;;;8.88;3.95;;;;;;;21.41;54.76;101962.97;144992;629;6002;-81
2021/05/09 04:43:09;;;;;;;10.57;4.53;;;;;;;21.48;54.56;101964.78;144991;659;6002;-80
2021/05/09 04:45:36;;;;;;;;;;;;;;;21.51;54.37;101959.53;144997;909;6002;-80
2021/05/09 04:48:04;;;;;;;14.57;5.20;;;;;;;21.60;54.37;101964.84;144997;679;6002;-80
2021/05/09 04:50:31;;;;;;;8.52;4.30;;;;;;;21.59;53.83;101963.09;144992;682;6002;-81
2021/05/09 04:52:58;;;;;;;8.13;3.90;;;;;;;21.58;54.05;101968.38;144992;647;6002;-80
2021/05/09 04:55:27;;;;;;;9.50;4.03;;;;;;;21.52;54.09;101983.31;144991;593;6002;-87
2021/05/09 04:57:59;;;;;;;8.80;4.22;;;;;;;21.51;54.41;101972.75;144992;616;6002;-82
2021/05/09 05:00:30;;;;;;;10.68;4.50;;;;;;;21.51;54.00;101980.69;144992;658;6002;-81
2021/05/09 05:03:07;;;;;;;8.98;4.50;;;;;;;21.52;54.55;101983.31;144992;622;6002;-81
2021/05/09 05:05:38;;;;;;;8.88;4.37;;;;;;;21.41;54.52;101982.31;144992;604;6002;-80
2021/05/09 05:08:06;;;;;;;10.90;3.97;;;;;;;21.30;54.00;101982.28;144992;563;6002;-81
2021/05/09 05:10:45;;;;;;;9.48;3.70;;;;;;;21.33;54.78;101990.25;144992;601;6002;-81
2021/05/09 05:13:34;;;;;;;6.57;3.10;;;;;;;21.28;53.63;101994.59;144992;563;6002;-81
2021/05/09 05:16:06;;;;;;;11.15;3.33;;;;;;;21.53;54.42;101992.13;144992;571;6002;-81
2021/05/09 05:18:38;;;;;;;7.95;2.90;;;;;;;21.49;53.39;101993.88;144992;617;6002;-82
2021/05/09 05:21:09;;;;;;;6.68;2.67;;;;;;;21.68;53.46;102000.13;144992;579;6002;-81
2021/05/09 05:23:43;;;;;;;8.57;2.78;;;;;;;21.85;53.86;101996.66;144992;578;6002;-81
2021/05/09 05:26:11;;;;;;;5.45;2.80;;;;;;;21.87;54.01;101998.44;144992;587;6002;-81
2021/05/09 05:28:39;;;;;;;8.60;2.70;;;;;;;21.88;53.10;101999.31;144992;569;6002;-82
2021/05/09 05:31:07;;;;;;;5.78;2.33;;;;;;;21.66;51.38;101995.69;144992;584;6002;-82
2021/05/09 05:33:36;;;;;;;3.80;2.45;;;;;;;21.55;52.23;102006.22;144992;581;6002;-82
2021/05/09 05:36:05;;;;;;;4.43;2.10;;;;;;;21.64;52.42;102005.38;144992;563;6002;-81
2021/05/09 05:38:33;;;;;;;4.03;2.10;;;;;;;21.87;53.27;102008.09;144992;623;6002;-81
2021/05/09 05:41:00;;;;;;;3.65;2.50;;;;;;;21.92;53.07;102014.28;144992;597;6002;-80
2021/05/09 05:43:32;;;;;;;6.50;2.50;;;;;;;21.91;53.11;102017.81;144992;569;6002;-80
2021/05/09 05:46:07;;;;;;;7.55;2.40;;;;;;;21.90;52.07;102018.69;144992;625;6002;-82
2021/05/09 05:48:34;;;;;;;4.85;2.25;;;;;;;22.00;52.31;102020.50;144992;617;6002;-80
2021/05/09 05:51:01;;;;;;;5.20;2.47;;;;;;;22.06;52.78;102023.16;144992;566;6002;-83
2021/05/09 05:53:29;;;;;;;4.93;2.50;;;;;;;22.17;52.51;102027.59;144992;582;6002;-81
2021/05/09 05:55:55;;;;;;;5.03;2.25;;;;;;;22.24;51.82;102030.25;144992;610;6002;-81
2021/05/09 05:58:23;;;;;;;8.60;2.97;;;;;;;22.22;51.83;102026.72;144992;597;6002;-82
2021/05/09 06:00:49;;;;;;;6.35;2.92;;;;;;;22.11;51.64;102028.44;144992;586;6002;-81
2021/05/09 06:03:16;;;;;;;5.97;2.70;;;;;;;22.06;51.85;102036.38;144992;740;6002;-81
2021/05/09 06:05:44;;;;;;;6.45;2.47;;;;;;;21.93;50.00;102040.72;144992;585;6002;-81
2021/05/09 06:08:11;;;;;;;5.90;2.80;;;;;;;21.98;51.91;102050.44;144992;666;6002;-80
2021/05/09 06:10:37;;;;;;;6.12;2.80;;;;;;;21.84;52.08;102051.28;144992;564;6002;-80
2021/05/09 06:13:04;;;;;;;8.07;2.75;;;;;;;21.65;51.83;102050.31;144992;598;6002;-80
2021/05/09 06:15:31;;;;;;;6.95;2.95;;;;;;;21.67;52.33;102060.87;144992;635;6002;-81
2021/05/09 06:17:58;;;;;;;5.05;2.42;;;;;;;21.65;52.60;102055.59;144992;674;6002;-81
2021/05/09 06:20:26;;;;;;;8.27;3.10;;;;;;;21.80;52.55;102061.84;144992;565;6002;-80
2021/05/09 06:22:57;;;;;;;8.25;2.53;;;;;;;21.63;51.80;102069.66;144992;591;6002;-82
2021/05/09 06:25:24;;;;;;;6.10;2.65;;;;;;;21.44;52.44;102066.00;144992;671;6002;-81
2021/05/09 06:27:51;;;;;;;6.75;2.53;;;;;;;21.48;52.54;102068.72;144992;563;6002;-82
2021/05/09 06:30:19;;;;;;;6.00;2.70;;;;;;;21.59;52.38;102076.69;144992;586;6002;-80
2021/05/09 06:32:46;;;;;;;6.32;2.22;;;;;;;21.70;52.39;102074.13;144992;620;6002;-81
2021/05/09 06:35:12;;;;;;;6.55;2.55;;;;;;;21.74;52.14;102074.13;144992;579;6002;-81
2021/05/09 06:37:40;;;;;;;4.55;2.67;;;;;;;21.68;51.42;102084.69;144992;575;6002;-80
2021/05/09 06:40:08;;;;;;;5.30;2.47;;;;;;;21.69;51.35;102085.56;144992;578;6002;-80
2021/05/09 06:42:34;;;;;;;5.00;2.25;;;;;;;21.60;50.73;102089.00;144992;660;6002;-80
2021/05/09 06:45:08;;;;;;;4.25;2.25;;;;;;;21.69;51.01;102093.50;144992;592;6002;-80
2021/05/09 06:47:34;;;;;;;8.52;2.22;;;;;;;21.65;51.40;102096.97;144992;569;6002;-80
2021/05/09 06:50:01;;;;;;;4.43;2.20;;;;;;;21.53;50.86;102087.22;144992;657;6002;-80
2021/05/09 06:52:27;;;;;;;4.85;2.17;;;;;;;21.60;52.40;102099.59;144992;554;6002;-80
2021/05/09 06:54:55;;;;;;;8.15;2.50;;;;;;;21.71;52.04;102100.56;144992;581;6002;-83
2021/05/09 06:57:21;;;;;;;7.65;2.90;;;;;;;21.77;51.30;102101.47;144992;635;6002;-81
2021/05/09 06:59:48;;;;;;;4.97;2.22;;;;;;;21.77;49.85;102104.09;144992;660;6002;-81
2021/05/09 07:02:14;;;;;;;4.45;2.40;;;;;;;21.83;51.18;102105.00;144992;623;6002;-80
2021/05/09 07:04:40;;;;;;;4.78;2.37;;;;;;;21.81;51.58;102116.44;144992;569;6002;-81
2021/05/09 07:07:07;;;;;;;7.37;2.80;;;;;;;21.81;51.28;102112.06;144992;584;6002;-81
2021/05/09 07:09:34;;;;;;;8.98;3.00;;;;;;;21.82;50.94;102113.81;144992;672;6002;-80
2021/05/09 07:12:01;;;;;;;7.65;2.60;;;;;;;21.69;49.43;102114.63;144992;616;6002;-81
2021/05/09 07:14:27;;;;;;;6.35;2.25;;;;;;;21.54;49.96;102115.44;144992;583;6002;-79
2021/05/09 07:16:54;;;;;;;4.20;2.12;;;;;;;21.54;48.96;102115.44;144992;644;6002;-80
2021/05/09 07:19:20;;;;;;;5.53;2.40;;;;;;;21.35;48.94;102120.53;144992;602;6002;-81
2021/05/09 07:21:50;;;;;;;6.53;2.28;;;;;;;21.36;49.89;102124.06;144992;618;6002;-80
2021/05/09 07:24:17;;;;;;;5.43;2.35;;;;;;;21.24;48.85;102116.03;144991;572;6002;-82
2021/05/09 07:26:44;;;;;;;5.70;2.62;;;;;;;21.28;49.75;102131.91;144992;646;6002;-80
2021/05/09 07:29:10;;;;;;;5.22;2.70;;;;;;;21.30;50.34;102135.47;144992;617;6002;-81
2021/05/09 07:31:40;;;;;;;5.97;2.40;;;;;;;21.42;50.91;102136.44;144992;625;6002;-81
2021/05/09 07:34:09;;;;;;;6.70;2.62;;;;;;;21.36;50.26;102138.16;144992;577;6002;-81
2021/05/09 07:36:36;;;;;;;5.68;2.80;;;;;;;21.25;48.50;102136.28;144992;584;6002;-81
2021/05/09 07:39:04;;;;;;;8.63;2.40;;;;;;;21.17;49.59;102144.16;144992;621;6003;-81
2021/05/09 07:41:30;;;;;;;8.63;2.65;;;;;;;21.30;50.99;102145.13;144992;597;6002;-82
2021/05/09 07:43:57;;;;;;;6.47;2.60;;;;;;;21.35;50.72;102149.59;144991;563;6002;-80
2021/05/09 07:46:23;;;;;;;5.62;2.60;;;;;;;21.25;48.28;102150.38;144992;687;6011;-81
2021/05/09 07:48:50;;;;;;;8.13;2.53;;;;;;;21.35;50.69;102154.88;144992;694;6002;-80
2021/05/09 07:51:17;;;;;;;6.75;2.45;;;;;;;21.36;47.84;102155.75;144992;580;6002;-80
2021/05/09 07:53:44;;;;;;;6.80;2.20;;;;;;;21.42;48.45;102158.44;144992;588;6002;-82
2021/05/09 07:56:11;;;;;;;8.88;2.62;;;;;;;21.40;49.67;102168.13;144992;564;6002;-82
2021/05/09 07:58:37;;;;;;;7.15;3.00;;;;;;;21.50;50.22;102166.47;144992;566;6002;-82
2021/05/09 08:01:04;;;;;;;5.18;2.55;;;;;;;21.55;50.00;102168.28;144992;589;6002;-80
2021/05/09 08:03:31;;;;;;;8.60;2.92;;;;;;;21.59;49.86;102163.91;144992;578;6002;-81
2021/05/09 08:05:57;;;;;;;5.82;2.37;;;;;;;21.63;48.04;102165.66;144992;582;6002;-81
2021/05/09 08:08:28;;;;;;;5.40;2.40;;;;;;;21.62;49.26;102168.28;144992;635;6002;-81
2021/05/09 08:10:55;;;;;;;8.05;2.40;;;;;;;21.61;49.73;102175.34;144992;569;6002;-80
2021/05/09 08:13:21;;;;;;;2.90;2.22;;;;;;;21.72;49.94;102175.44;144992;569;6002;-81
2021/05/09 08:15:48;;;;;;;8.75;2.90;;;;;;;21.65;49.39;102184.16;144992;593;6002;-81
2021/05/09 08:18:14;;;;;;;4.78;2.60;;;;;;;21.68;48.49;102179.81;144992;564;6002;-81
2021/05/09 08:20:41;;;;;;;7.12;2.45;;;;;;;21.76;49.50;102176.31;144992;565;6002;-80
2021/05/09 08:23:07;;;;;;;9.23;5.18;;;;;;;21.81;48.78;102182.50;144992;600;6002;-80
2021/05/09 08:25:35;;;;;;;8.20;3.20;;;;;;;21.90;49.27;102175.56;144992;606;6002;-80
2021/05/09 08:28:02;;;;;;;6.95;3.37;;;;;;;21.96;49.51;102182.63;144992;610;6002;-79
2021/05/09 08:30:28;;;;;;;6.43;2.45;;;;;;;22.02;49.35;102185.31;144992;564;6002;-82
2021/05/09 08:32:55;;;;;;;4.87;2.72;;;;;;;21.60;43.58;102177.97;144992;633;6002;-80
2021/05/09 08:35:21;;;;;;;5.93;2.60;;;;;;;21.55;45.32;102183.22;144993;645;6002;-82
2021/05/09 08:37:48;;;;;;;8.02;2.53;;;;;;;21.64;48.76;102188.59;144993;576;6002;-81
2021/05/09 08:40:17;;;;;;;5.75;2.55;;;;;;;21.75;48.02;102186.03;144993;625;6002;-81
2021/05/09 08:42:46;;;;;;;7.62;2.70;;;;;;;21.82;47.30;102192.22;144993;572;6002;-82
2021/05/09 08:45:14;;;;;;;5.30;2.75;;;;;;;21.98;48.31;102190.56;144993;609;6002;-81
2021/05/09 08:47:41;;;;;;;6.12;2.58;;;;;;;22.16;47.67;102192.41;144993;601;6002;-81
2021/05/09 08:50:26;;;;;;;6.20;2.60;;;;;;;22.25;46.86;102192.47;144993;632;6002;-81
2021/05/09 08:52:56;;;;;;;5.53;2.30;;;;;;;22.45;45.26;102187.28;144993;595;6000;-81
2021/05/09 08:55:26;;;;;;;4.32;2.50;;;;;;;22.59;47.20;102198.81;144993;571;6002;-81
2021/05/09 08:57:56;;;;;;;4.90;3.10;;;;;;;22.70;46.24;102193.56;144993;565;6002;-81
2021/05/09 09:00:25;;;;;;;6.30;2.95;;;;;;;22.83;46.14;102191.81;144993;598;6002;-81
2021/05/09 09:02:51;;;;;;;6.87;3.33;;;;;;;22.50;45.94;102184.66;144993;609;6002;-82
2021/05/09 09:05:44;;;;;;;6.57;3.30;;;;;;;22.77;45.34;102197.97;144993;578;6002;-81
2021/05/09 09:08:14;;;;;;;7.20;3.85;;;;;;;22.64;41.88;102188.25;144992;578;6002;-81
2021/05/09 09:10:52;;;;;;;4.85;2.97;;;;;;;22.56;44.31;102193.50;144992;581;6002;-82
2021/05/09 09:13:27;;;;;;;7.82;3.22;;;;;;;22.54;42.42;102187.34;144992;622;6002;-80
2021/05/09 09:16:07;;;;;;;7.65;2.72;;;;;;;22.63;44.11;102189.09;144992;583;6002;-81
2021/05/09 09:18:40;;;;;;;5.85;2.67;;;;;;;22.81;42.00;102185.63;144992;587;6002;-80
2021/05/09 09:21:42;;;;;;;5.82;2.50;;;;;;;23.07;44.25;102188.31;144993;655;6002;-80
2021/05/09 09:24:10;;;;;;;11.02;2.53;;;;;;;23.21;44.84;102192.75;144993;611;6000;-80
2021/05/09 09:26:42;;;;;;;3.72;2.25;;;;;;;23.33;44.55;102193.66;144993;614;6002;-80
2021/05/09 09:29:37;;;;;;;4.47;2.30;;;;;;;23.47;40.59;102184.84;144993;649;6002;-80
2021/05/09 09:32:11;;;;;;;17.33;3.58;;;;;;;23.51;41.96;102182.19;144993;628;6000;-81
2021/05/09 09:34:42;;;;;;;5.00;2.90;;;;;;;23.63;42.51;102186.56;144993;628;6002;-81
2021/05/09 09:37:10;;;;;;;6.47;3.20;;;;;;;23.54;37.06;102168.03;144993;590;6002;-80
2021/05/09 09:39:49;;;;;;;8.18;3.30;;;;;;;23.22;34.79;102179.53;144992;586;6002;-79
2021/05/09 09:42:37;;;;;;;5.20;2.12;;;;;;;23.16;35.45;102185.72;144993;570;6002;-80
2021/05/09 09:45:20;;;;;;;6.20;2.40;;;;;;;23.43;39.11;102177.75;144993;566;6002;-82
2021/05/09 09:47:54;;;;;;;5.47;2.75;;;;;;;23.27;36.08;102183.06;144993;622;6002;-80
2021/05/09 09:50:46;;;;;;;8.07;3.60;;;;;;;23.15;36.91;102191.00;144993;612;6002;-81
2021/05/09 09:53:35;;;;;;;5.12;1.83;;;;;;;23.09;33.24;102189.22;144993;624;6002;-80
2021/05/09 09:56:27;;;;;;;2.95;1.25;;;;;;;23.37;34.86;102194.56;144993;564;6002;-81
2021/05/09 09:59:08;;;;;;;4.87;2.10;;;;;;;23.23;33.81;102196.31;144993;593;6004;-79
2021/05/09 10:01:36;;;;;;;2.00;1.55;;;;;;;22.50;33.69;102185.53;144993;586;6002;-80
2021/05/09 10:04:09;;;;;;;3.37;1.73;;;;;;;22.61;34.18;102185.59;144993;562;6002;-81
2021/05/09 10:06:39;;;;;;;8.35;5.72;;;;;;;22.64;32.28;102188.25;144993;585;6002;-80
2021/05/09 10:09:07;;;;;;;5.03;2.03;;;;;;;22.69;33.08;102194.44;144993;565;6002;-81
2021/05/09 10:11:34;;;;;;;6.72;5.35;;;;;;;22.69;31.91;102191.78;144993;563;6002;-80
2021/05/09 10:14:00;;;;;;;7.85;4.68;;;;;;;22.61;32.99;102182.94;144993;605;6002;-80
2021/05/09 10:16:42;;;;;;;30.05;23.23;;;;;;;22.71;33.96;102194.44;144994;629;5002;-80
2021/05/09 10:19:14;;;;;;;46.53;37.45;;;;;;;22.75;34.67;102210.31;144994;591;5002;-80
2021/05/09 10:21:42;;;;;;;19.60;14.57;;;;;;;22.58;34.41;102196.16;144994;586;5002;-79
2021/05/09 10:24:25;;;;;;;23.40;15.52;;;;;;;22.53;33.47;102204.06;144994;601;5002;-80
2021/05/09 10:27:09;;;;;;;16.12;12.27;;;;;;;22.46;34.62;102191.69;144994;685;5002;-80
2021/05/09 10:29:55;;;;;;;6.62;4.22;;;;;;;22.01;32.43;102195.87;144994;563;5002;-80
2021/05/09 10:32:47;;;;;;;15.40;11.27;;;;;;;22.02;33.94;102190.59;144994;573;5004;-80
2021/05/09 10:35:14;;;;;;;83.72;56.63;;;;;;;21.72;35.29;102208.00;144994;618;5002;-80
2021/05/09 10:38:00;;;;;;;58.80;35.78;;;;;;;21.62;34.58;102192.97;144994;590;5002;-79
2021/05/09 10:40:39;;;;;;;6.40;4.15;;;;;;;21.60;35.40;102201.75;144994;568;5004;-81
2021/05/09 10:43:28;;;;;;;59.15;34.95;;;;;;;21.67;35.60;102204.47;144994;639;5004;-81
2021/05/09 10:45:55;;;;;;;129.73;68.57;;;;;;;21.71;36.02;102206.28;144994;604;5002;-79
2021/05/09 10:48:32;;;;;;;21.73;12.70;;;;;;;21.41;36.13;102211.25;144994;615;5002;-81
2021/05/09 10:51:25;;;;;;;21.85;12.57;;;;;;;21.40;36.03;102194.53;144994;574;5002;-79
2021/05/09 10:53:53;;;;;;;74.60;55.30;;;;;;;21.34;35.34;102200.63;144994;590;5004;-82
2021/05/09 10:56:39;;;;;;;19.83;11.90;;;;;;;21.56;35.18;102192.94;144994;626;5004;-80
2021/05/09 10:59:05;;;;;;;9.27;4.68;;;;;;;21.44;33.83;102206.00;144993;572;5002;-80
2021/05/09 11:01:36;;;;;;;34.22;21.90;;;;;;;21.53;34.75;102198.19;144994;570;5002;-80
2021/05/09 11:04:13;;;;;;;20.08;12.32;;;;;;;21.45;35.50;102208.66;144994;600;5002;-81
2021/05/09 11:06:44;;;;;;;16.23;11.35;;;;;;;21.38;35.34;102207.72;144994;688;5002;-81
2021/05/09 11:09:13;;;;;;;10.27;5.62;;;;;;;21.14;35.62;102211.03;144994;584;5002;-80
2021/05/09 11:12:01;;;;;;;11.98;6.57;;;;;;;21.27;36.43;102204.13;144994;581;5002;-80
2021/05/09 11:14:27;;;;;;;6.05;2.35;;;;;;;21.17;36.97;102196.97;144994;579;5004;-79
2021/05/09 11:17:17;;;;;;;5.40;1.87;;;;;;;21.32;36.10;102198.88;144994;575;5004;-80
2021/05/09 11:19:48;;;;;;;5.95;1.40;;;;;;;21.36;36.53;102204.19;144994;626;5004;-79
2021/05/09 11:22:20;;;;;;;4.70;1.30;;;;;;;21.48;36.09;102187.59;144994;594;5004;-79
2021/05/09 11:24:54;;;;;;;5.68;1.20;;;;;;;21.52;35.70;102197.31;144994;572;5004;-79
2021/05/09 11:27:22;;;;;;;5.35;1.60;;;;;;;21.56;36.77;102190.28;144994;584;5004;-80
2021/05/09 11:29:51;;;;;;;7.12;4.50;;;;;;;21.73;36.48;102201.00;144994;577;5004;-80
2021/05/09 11:32:20;;;;;;;4.93;2.15;;;;;;;21.84;36.65;102191.38;144994;625;5004;-81
2021/05/09 11:34:54;;;;;;;3.62;1.60;;;;;;;21.91;36.51;102202.87;144994;637;5004;-81
2021/05/09 11:37:23;;;;;;;;;;;;;;;22.07;36.07;102207.34;144998;909;5004;-81
2021/05/09 11:39:50;;;;;;;4.55;2.35;;;;;;;22.10;36.75;102194.16;144998;574;5000;-80
2021/05/09 11:42:18;;;;;;;6.00;1.60;;;;;;;21.97;35.74;102202.00;144994;594;5004;-81
2021/05/09 11:44:47;;;;;;;2.92;1.30;;;;;;;22.08;35.14;102198.56;144994;561;5005;-80